createdAt,value
2022-12-05T00:02:55.868Z,0.54
2022-12-05T00:08:01.531Z,0.54
2022-12-05T00:13:09.555Z,0.55
2022-12-05T00:18:16.758Z,0.57
2022-12-05T00:23:24.215Z,0.54
2022-12-05T00:28:32.190Z,0.50
2022-12-05T00:33:40.317Z,0.53
2022-12-05T00:38:47.809Z,0.53
2022-12-05T00:43:56.760Z,0.53
2022-12-05T00:49:05.749Z,0.52
2022-12-05T00:54:15.952Z,0.55
2022-12-05T00:59:23.290Z,0.55
2022-12-05T01:04:30.667Z,0.58
2022-12-05T01:09:38.081Z,0.56
2022-12-05T01:14:45.732Z,0.52
2022-12-05T01:19:53.080Z,0.52
2022-12-05T01:24:59.359Z,0.51
2022-12-05T01:30:08.300Z,0.53
2022-12-05T01:35:16.295Z,0.50
2022-12-05T01:40:23.356Z,0.52
2022-12-05T01:45:36.640Z,0.56
2022-12-05T01:50:44.333Z,0.57
2022-12-05T01:55:53.870Z,0.56
2022-12-05T02:01:01.356Z,0.58
2022-12-05T02:06:10.748Z,0.64
2022-12-05T02:11:18.288Z,0.68
2022-12-05T02:16:40.831Z,0.69
2022-12-05T02:22:09.967Z,0.71
2022-12-05T02:28:10.405Z,0.69
2022-12-05T02:33:25.790Z,0.67
2022-12-05T02:38:38.216Z,0.69
2022-12-05T02:43:51.175Z,0.68
2022-12-05T02:49:02.172Z,0.70
2022-12-05T02:54:15.508Z,0.73
2022-12-05T02:59:23.740Z,0.74
2022-12-05T03:04:33.972Z,0.69
2022-12-05T03:09:45.471Z,0.68
2022-12-05T03:14:58.379Z,0.71
2022-12-05T03:20:10.562Z,0.71
2022-12-05T03:25:19.286Z,0.66
2022-12-05T03:30:27.041Z,0.64
2022-12-05T03:35:42.718Z,0.64
2022-12-05T03:40:54.731Z,0.64
2022-12-05T03:46:07.950Z,0.66
2022-12-05T03:51:18.251Z,0.67
2022-12-05T03:56:32.514Z,0.69
2022-12-05T04:01:43.365Z,0.68
2022-12-05T04:06:55.790Z,0.69
2022-12-05T04:12:08.157Z,0.71
2022-12-05T04:17:22.574Z,0.70
2022-12-05T04:22:31.173Z,0.65
2022-12-05T04:27:45.168Z,0.61
2022-12-05T04:32:59.539Z,0.61
2022-12-05T04:38:11.153Z,0.60
2022-12-05T04:43:21.659Z,0.59
2022-12-05T04:48:30.778Z,0.58
2022-12-05T04:53:41.351Z,0.60
2022-12-05T04:58:49.221Z,0.61
2022-12-05T05:04:01.465Z,0.62
2022-12-05T05:09:09.252Z,0.65
2022-12-05T05:14:16.294Z,0.69
2022-12-05T05:19:23.880Z,0.70
2022-12-05T05:24:31.619Z,0.67
2022-12-05T05:29:38.944Z,0.61
2022-12-05T05:34:46.000Z,0.55
2022-12-05T05:39:53.602Z,0.56
2022-12-05T05:45:00.987Z,0.57
2022-12-05T05:50:10.707Z,0.60
2022-12-05T05:55:20.241Z,0.62
2022-12-05T06:00:28.932Z,0.60
2022-12-05T06:05:36.457Z,0.58
2022-12-05T06:10:43.701Z,0.59
2022-12-05T06:15:51.478Z,0.57
2022-12-05T06:21:00.004Z,0.57
2022-12-05T06:26:11.301Z,0.56
2022-12-05T06:31:21.325Z,0.53
2022-12-05T06:36:29.805Z,0.53
2022-12-05T06:41:37.422Z,0.55
2022-12-05T06:46:44.710Z,0.59
2022-12-05T06:51:52.341Z,0.62
2022-12-05T06:56:59.623Z,0.65
2022-12-05T07:02:08.658Z,0.65
2022-12-05T07:07:16.068Z,0.59
2022-12-05T07:12:23.397Z,0.59
2022-12-05T07:17:30.713Z,0.66
2022-12-05T07:22:40.384Z,0.71
2022-12-05T07:27:47.533Z,0.72
2022-12-05T07:32:55.252Z,0.74
2022-12-05T07:38:01.707Z,0.77
2022-12-05T07:43:08.888Z,0.81
2022-12-05T07:51:39.136Z,0.90
2022-12-05T07:56:47.940Z,0.92
2022-12-05T08:01:55.763Z,0.97
2022-12-05T08:07:03.039Z,0.97
2022-12-05T08:12:11.056Z,0.97
2022-12-05T08:17:19.100Z,0.94
2022-12-05T08:22:27.493Z,0.90
2022-12-05T08:27:33.165Z,0.89
2022-12-05T08:32:40.577Z,0.87
2022-12-05T08:37:48.008Z,0.89
2022-12-05T08:42:56.601Z,0.94
2022-12-05T08:48:04.286Z,1.01
2022-12-05T08:53:11.710Z,1.08
2022-12-05T08:58:17.347Z,1.13
2022-12-05T09:03:24.987Z,1.13
2022-12-05T09:08:32.610Z,1.17
2022-12-05T09:13:40.882Z,1.24
2022-12-05T09:18:49.155Z,1.29
2022-12-05T09:23:57.741Z,1.37
2022-12-05T09:29:14.131Z,1.45
2022-12-05T09:34:25.288Z,1.46
2022-12-05T09:39:32.875Z,1.54
2022-12-05T09:44:55.441Z,1.67
2022-12-05T09:50:13.944Z,1.76
2022-12-05T09:55:24.138Z,1.84
2022-12-05T10:00:34.322Z,1.90
2022-12-05T10:05:49.115Z,1.96
2022-12-05T10:11:05.498Z,2.06
2022-12-05T10:16:19.448Z,2.18
2022-12-05T10:21:32.657Z,2.27
2022-12-05T10:26:47.241Z,2.36
2022-12-05T10:32:04.376Z,2.49
2022-12-05T10:37:19.111Z,2.57
2022-12-05T10:42:31.134Z,2.65
2022-12-05T10:47:38.787Z,2.77
2022-12-05T10:52:47.116Z,2.89
2022-12-05T10:58:16.819Z,2.99
2022-12-05T11:03:35.916Z,3.12
2022-12-05T11:09:07.991Z,3.21
2022-12-05T11:14:26.411Z,3.34
2022-12-05T11:19:36.542Z,3.46
2022-12-05T11:24:44.009Z,3.59
2022-12-05T11:30:00.278Z,3.71
2022-12-05T11:35:26.397Z,3.82
2022-12-05T11:40:45.155Z,3.86
2022-12-05T11:46:03.848Z,3.92
2022-12-05T11:51:25.102Z,4.03
2022-12-05T11:56:39.213Z,4.16
2022-12-05T12:01:57.764Z,4.26
2022-12-05T12:07:21.637Z,4.37
2022-12-05T12:12:40.749Z,4.46
2022-12-05T12:17:56.537Z,4.54
2022-12-05T12:23:20.136Z,4.64
2022-12-05T12:28:40.541Z,4.73
2022-12-05T12:33:54.043Z,4.85
2022-12-05T12:39:12.514Z,4.96
2022-12-05T12:51:48.050Z,5.23
2022-12-05T12:57:12.135Z,5.26
2022-12-05T13:02:26.830Z,5.30
2022-12-05T13:07:40.454Z,5.35
2022-12-05T13:12:48.913Z,5.38
2022-12-05T13:17:57.968Z,5.40
2022-12-05T13:23:08.561Z,5.43
2022-12-05T13:28:30.001Z,5.47
2022-12-05T13:33:46.470Z,5.52
2022-12-05T13:39:18.049Z,5.56
2022-12-05T13:44:34.764Z,5.59
2022-12-05T13:49:49.041Z,5.63
2022-12-05T13:55:04.225Z,5.65
2022-12-05T14:00:32.330Z,5.66
2022-12-05T14:05:57.953Z,5.66
2022-12-05T14:11:15.087Z,5.65
2022-12-05T14:16:53.961Z,5.64
2022-12-05T14:22:15.566Z,5.61
2022-12-05T14:27:29.856Z,5.61
2022-12-05T14:32:40.212Z,5.63
2022-12-05T14:37:55.306Z,5.63
2022-12-05T14:43:05.625Z,5.64
2022-12-05T14:48:29.143Z,5.65
2022-12-05T14:53:43.089Z,5.64
2022-12-05T14:58:57.268Z,5.61
2022-12-05T15:04:18.689Z,5.56
2022-12-05T15:09:41.495Z,5.48
2022-12-05T15:14:55.122Z,5.43
2022-12-05T15:30:17.073Z,5.38
2022-12-05T15:35:23.894Z,5.33
2022-12-05T15:40:36.923Z,5.27
2022-12-05T15:45:41.653Z,5.18
2022-12-05T15:50:49.830Z,5.09
2022-12-05T15:55:58.508Z,5.04
2022-12-05T16:01:06.347Z,5.03
2022-12-05T16:06:17.332Z,5.02
2022-12-05T16:11:21.897Z,5.02
2022-12-05T16:16:31.261Z,4.98
2022-12-05T16:21:38.944Z,4.91
2022-12-05T16:26:43.996Z,4.82
2022-12-05T16:31:55.850Z,4.76
2022-12-05T16:37:00.041Z,4.68
2022-12-05T16:42:17.147Z,4.61
2022-12-05T16:47:25.379Z,4.54
2022-12-05T16:52:31.868Z,4.35
2022-12-05T16:57:35.677Z,4.29
2022-12-05T17:02:39.475Z,4.19
2022-12-05T17:07:43.191Z,4.04
2022-12-05T17:12:47.788Z,3.94
2022-12-05T17:17:52.189Z,3.95
2022-12-05T17:22:56.014Z,3.97
2022-12-05T17:28:00.250Z,3.95
2022-12-05T17:33:03.953Z,3.98
2022-12-05T17:38:07.786Z,4.00
2022-12-05T17:43:13.963Z,3.92
2022-12-05T17:48:17.715Z,3.79
2022-12-05T17:53:22.254Z,3.70
2022-12-05T17:58:27.888Z,3.68
2022-12-05T18:03:31.696Z,3.72
2022-12-05T18:08:39.327Z,3.70
2022-12-05T18:13:42.936Z,3.67
2022-12-05T18:18:47.376Z,3.63
2022-12-05T18:23:52.218Z,3.63
2022-12-05T18:28:56.961Z,3.65
2022-12-05T18:34:00.797Z,3.68
2022-12-05T18:39:05.110Z,3.68
2022-12-05T18:44:10.319Z,3.71
2022-12-05T18:49:16.546Z,3.75
2022-12-05T18:54:21.507Z,3.75
2022-12-05T18:59:25.507Z,3.76
2022-12-05T19:04:30.154Z,3.76
2022-12-05T19:09:35.409Z,3.74
2022-12-05T19:14:40.855Z,3.76
2022-12-05T19:19:45.061Z,3.75
2022-12-05T19:24:48.952Z,3.70
2022-12-05T19:40:05.606Z,3.61
2022-12-05T19:45:17.892Z,3.56
2022-12-05T19:50:26.044Z,3.54
2022-12-05T19:55:33.756Z,3.56
2022-12-05T20:00:41.883Z,3.62
2022-12-05T20:05:59.274Z,3.59
2022-12-05T20:11:09.883Z,3.56
2022-12-05T20:16:20.201Z,3.50
2022-12-05T20:21:30.683Z,3.45
2022-12-05T20:26:39.585Z,3.45
2022-12-05T20:31:47.183Z,3.47
2022-12-05T20:36:54.653Z,3.49
2022-12-05T20:42:02.016Z,3.51
2022-12-05T20:47:10.121Z,3.54
2022-12-05T20:52:17.237Z,3.48
2022-12-05T20:57:24.334Z,3.40
2022-12-05T21:02:30.005Z,3.42
2022-12-05T21:07:37.698Z,3.48
2022-12-05T21:12:45.333Z,3.56
2022-12-05T21:17:52.730Z,3.65
2022-12-05T21:22:58.286Z,3.73
2022-12-05T21:28:05.779Z,3.74
2022-12-05T21:33:13.504Z,3.69
2022-12-05T21:38:21.324Z,3.63
2022-12-05T21:43:28.634Z,3.63
2022-12-05T21:48:34.958Z,3.61
2022-12-05T21:53:42.394Z,3.64
2022-12-05T21:58:50.809Z,3.69
2022-12-05T22:04:01.035Z,3.71
2022-12-05T22:09:09.261Z,3.73
2022-12-05T22:14:16.607Z,3.77
2022-12-05T22:19:24.013Z,3.68
2022-12-05T22:24:32.196Z,3.63
2022-12-05T22:29:39.699Z,3.65
2022-12-05T22:34:47.273Z,3.70
2022-12-05T22:39:55.585Z,3.75
2022-12-05T22:45:03.593Z,3.81
2022-12-05T22:50:12.690Z,3.77
2022-12-05T22:55:20.770Z,3.66
2022-12-05T23:00:28.194Z,3.62
2022-12-05T23:05:40.415Z,3.60
2022-12-05T23:10:47.691Z,3.59
2022-12-05T23:15:53.507Z,3.65
2022-12-05T23:21:05.914Z,3.70
2022-12-05T23:26:14.557Z,3.74
2022-12-05T23:31:23.169Z,3.74
2022-12-05T23:36:30.664Z,3.73
2022-12-05T23:41:38.351Z,3.72
2022-12-05T23:46:45.540Z,3.76
2022-12-05T23:51:53.407Z,3.77
2022-12-05T23:57:00.985Z,3.79
